Time;durP1;ratioP1;P1;durP2;ratioP2;P2;SDS_P1;SDS_P2;PMS_P1;PMS_P2;Temp;Humidity;BMP_temperature;BMP_pressure;BME280_temperature;BME280_humidity;BME280_pressure;Samples;Min_cycle;Max_cycle;Signal;HPM_P1;HPM_P2
2022/06/18 00:02:17;;;;;;;4.75;2.42;;;20.70;46.50;;;;;;5054346;28;20052;-74
2022/06/18 00:04:51;;;;;;;3.70;2.40;;;20.70;46.80;;;;;;5055861;28;20036;-74
2022/06/18 00:07:22;;;;;;;;;;;20.70;47.00;;;;;;5054019;28;20473;-74
2022/06/18 00:10:04;;;;;;;2.78;2.10;;;20.70;45.60;;;;;;5041094;28;19913;-78
2022/06/18 00:15:28;;;;;;;3.55;2.40;;;20.60;47.00;;;;;;5055312;28;20062;-74
2022/06/18 00:17:55;;;;;;;3.00;2.20;;;20.60;47.20;;;;;;5055211;28;20527;-74
2022/06/18 00:20:23;;;;;;;2.95;1.73;;;20.60;47.20;;;;;;5055797;28;20039;-74
2022/06/18 00:22:54;;;;;;;2.20;2.00;;;20.60;47.30;;;;;;5055159;28;20373;-74
2022/06/18 00:25:29;;;;;;;4.03;2.28;;;20.70;47.30;;;;;;5052676;28;20082;-75
2022/06/18 00:28:01;;;;;;;4.35;2.47;;;20.70;47.50;;;;;;5053840;28;20028;-74
2022/06/18 00:30:36;;;;;;;4.00;2.25;;;20.70;47.40;;;;;;5055379;28;20032;-74
2022/06/18 00:33:08;;;;;;;3.55;2.10;;;20.70;47.40;;;;;;5054972;28;20037;-74
2022/06/18 00:35:35;;;;;;;4.53;2.28;;;20.70;47.50;;;;;;5054052;28;20025;-74
2022/06/18 00:38:06;;;;;;;4.00;2.30;;;20.70;47.30;;;;;;5053220;28;20055;-74
2022/06/18 00:40:38;;;;;;;3.55;2.20;;;20.60;47.50;;;;;;5053818;28;20017;-74
2022/06/18 00:43:13;;;;;;;7.80;2.65;;;20.60;47.50;;;;;;5043984;28;20025;-74
2022/06/18 00:45:47;;;;;;;3.33;2.00;;;20.50;47.60;;;;;;5054840;28;20025;-74
2022/06/18 00:48:28;;;;;;;2.58;1.98;;;20.50;47.40;;;;;;5054875;28;20075;-74
2022/06/18 00:51:41;;;;;;;2.78;1.95;;;20.50;47.50;;;;;;5053863;28;20032;-77
2022/06/18 00:54:18;;;;;;;4.65;2.00;;;20.40;47.40;;;;;;5038340;28;20551;-74
2022/06/18 00:57:12;;;;;;;2.85;2.15;;;20.40;47.70;;;;;;5053526;28;20487;-75
2022/06/18 00:59:46;;;;;;;3.78;2.45;;;20.40;48.00;;;;;;5053427;28;20024;-75
2022/06/18 01:02:19;;;;;;;2.10;1.80;;;20.30;47.90;;;;;;5052571;28;20041;-74
2022/06/18 01:04:52;;;;;;;5.32;2.40;;;20.30;48.60;;;;;;5054840;28;20032;-74
2022/06/18 01:07:36;;;;;;;3.65;1.98;;;20.20;48.20;;;;;;5048180;28;20040;-74
2022/06/18 01:10:18;;;;;;;2.90;1.90;;;20.20;48.30;;;;;;5043031;28;20033;-74
2022/06/18 01:12:44;;;;;;;3.50;1.90;;;20.20;48.30;;;;;;5054316;28;20625;-73
2022/06/18 01:15:13;;;;;;;2.75;2.00;;;20.10;48.20;;;;;;5054161;28;20025;-74
2022/06/18 01:17:47;;;;;;;3.05;1.80;;;20.10;48.10;;;;;;5042210;28;20029;-74
2022/06/18 01:20:18;;;;;;;2.58;2.22;;;20.10;48.30;;;;;;5039066;28;20083;-73
2022/06/18 01:23:11;;;;;;;3.05;1.92;;;20.10;48.30;;;;;;5035239;28;20057;-74
2022/06/18 01:25:38;;;;;;;2.60;2.05;;;20.10;48.50;;;;;;5038712;28;20025;-74
2022/06/18 01:28:04;;;;;;;3.28;1.92;;;20.10;48.30;;;;;;5053555;28;20032;-75
2022/06/18 01:30:38;;;;;;;2.95;2.38;;;20.10;48.50;;;;;;5053904;28;20032;-78
2022/06/18 01:33:08;;;;;;;;;;;20.00;48.80;;;;;;5039656;28;20022;-75
2022/06/18 01:35:41;;;;;;;3.83;2.22;;;20.10;47.80;;;;;;5043504;28;19905;-75
2022/06/18 01:38:09;;;;;;;3.22;2.10;;;20.00;48.70;;;;;;5052483;28;20028;-76
2022/06/18 01:44:00;;;;;;;2.58;1.83;;;20.00;48.80;;;;;;5051790;28;20094;-75
2022/06/18 01:46:36;;;;;;;2.20;1.90;;;19.90;48.70;;;;;;5052366;28;20055;-74
2022/06/18 01:49:06;;;;;;;9.63;4.05;;;19.90;48.80;;;;;;5053475;28;20021;-74
2022/06/18 01:51:39;;;;;;;6.43;2.38;;;19.90;49.00;;;;;;5053502;28;20175;-74
2022/06/18 01:54:21;;;;;;;3.25;2.03;;;19.80;49.40;;;;;;5052197;28;20029;-74
2022/06/18 01:57:02;;;;;;;4.55;2.20;;;19.80;49.70;;;;;;5053550;28;20078;-74
2022/06/18 01:59:56;;;;;;;6.53;2.25;;;19.80;49.70;;;;;;5047467;28;20133;-74
2022/06/18 02:02:22;;;;;;;4.43;2.40;;;19.80;49.80;;;;;;5051466;28;20041;-74
2022/06/18 02:04:48;;;;;;;2.40;2.20;;;19.90;49.90;;;;;;5053463;28;20072;-74
2022/06/18 02:07:22;;;;;;;5.72;2.35;;;19.90;50.60;;;;;;5051574;28;20021;-74
2022/06/18 02:10:04;;;;;;;3.35;2.00;;;19.90;50.00;;;;;;5052959;28;20029;-74
2022/06/18 02:12:41;;;;;;;3.63;2.38;;;20.00;50.10;;;;;;5051913;28;20025;-74
2022/06/18 02:15:15;;;;;;;3.88;1.98;;;20.00;50.00;;;;;;5053545;28;20037;-74
2022/06/18 02:17:42;;;;;;;;;;;20.10;50.00;;;;;;5049991;28;20039;-74
2022/06/18 02:20:18;;;;;;;3.50;2.50;;;20.20;49.10;;;;;;5051929;28;19912;-74
2022/06/18 02:22:50;;;;;;;3.25;2.03;;;20.20;49.70;;;;;;5044700;28;20044;-74
2022/06/18 02:25:20;;;;;;;2.45;2.22;;;20.30;49.70;;;;;;5033427;28;20528;-75
2022/06/18 02:27:48;;;;;;;2.58;2.00;;;20.30;49.70;;;;;;5031764;28;20079;-74
2022/06/18 02:30:20;;;;;;;4.85;2.35;;;20.30;49.70;;;;;;5034182;28;20470;-74
2022/06/18 02:33:21;;;;;;;6.05;2.40;;;20.40;49.80;;;;;;5051811;28;20428;-74
2022/06/18 02:35:55;;;;;;;7.00;2.50;;;20.50;49.90;;;;;;5022042;28;20093;-74
2022/06/18 02:38:22;;;;;;;4.35;2.08;;;20.50;49.90;;;;;;5051735;28;20025;-78
2022/06/18 02:40:49;;;;;;;5.80;2.58;;;20.60;49.90;;;;;;5052924;28;20040;-76
2022/06/18 02:43:18;;;;;;;3.28;2.35;;;20.60;49.80;;;;;;5051518;28;20079;-76
2022/06/18 02:45:48;;;;;;;5.60;2.47;;;20.70;49.80;;;;;;5052738;28;20523;-73
2022/06/18 02:48:14;;;;;;;3.28;2.50;;;20.70;49.80;;;;;;5052410;28;20032;-74
2022/06/18 02:50:48;;;;;;;3.90;2.33;;;20.80;50.10;;;;;;5051796;28;20036;-74
2022/06/18 02:53:19;;;;;;;3.08;2.42;;;20.80;50.30;;;;;;5052630;28;20044;-75
2022/06/18 02:55:56;;;;;;;4.32;2.47;;;20.80;50.30;;;;;;5052866;28;20079;-74
2022/06/18 02:58:26;;;;;;;3.75;2.50;;;20.80;50.30;;;;;;5052812;28;20021;-75
2022/06/18 03:01:05;;;;;;;2.60;2.20;;;20.80;50.00;;;;;;5054641;28;20042;-78
2022/06/18 03:03:36;;;;;;;3.53;2.22;;;20.80;50.00;;;;;;5072273;28;20080;-74
2022/06/18 03:06:03;;;;;;;6.05;2.47;;;20.90;49.90;;;;;;5076766;28;20109;-74
2022/06/18 03:08:30;;;;;;;5.15;3.05;;;20.80;50.00;;;;;;5076640;28;20088;-74
2022/06/18 03:13:44;;;;;;;4.25;2.75;;;20.70;50.40;;;;;;5076781;28;20027;-74
2022/06/18 03:16:22;;;;;;;5.97;3.25;;;20.70;50.50;;;;;;5076354;28;20055;-74
2022/06/18 03:18:52;;;;;;;5.57;3.38;;;20.60;51.00;;;;;;5036706;28;20028;-74
2022/06/18 03:21:38;;;;;;;6.53;3.38;;;20.50;50.80;;;;;;5051958;28;20037;-74
2022/06/18 03:24:11;;;;;;;4.57;2.90;;;20.50;51.10;;;;;;5034545;28;20030;-74
2022/06/18 03:26:45;;;;;;;4.82;3.15;;;20.40;51.30;;;;;;5036302;28;20518;-74
2022/06/18 03:29:19;;;;;;;4.00;2.88;;;20.40;51.30;;;;;;5054912;28;20048;-74
2022/06/18 03:31:45;;;;;;;4.95;3.28;;;20.30;51.30;;;;;;5056165;28;20028;-74
2022/06/18 03:34:19;;;;;;;6.75;2.70;;;20.30;51.20;;;;;;5056208;28;20060;-73
2022/06/18 03:36:53;;;;;;;3.88;3.08;;;20.30;51.60;;;;;;5056011;28;20021;-74
2022/06/18 03:39:20;;;;;;;4.05;2.58;;;20.20;51.50;;;;;;5056292;28;20068;-74
2022/06/18 03:41:46;;;;;;;4.20;2.50;;;20.20;51.50;;;;;;5055821;28;20025;-74
2022/06/18 03:44:12;;;;;;;4.00;3.10;;;20.20;51.60;;;;;;5053286;28;20029;-76
2022/06/18 03:46:40;;;;;;;4.75;3.30;;;20.20;51.90;;;;;;5054512;28;20036;-74
2022/06/18 03:49:07;;;;;;;5.88;3.53;;;20.10;52.00;;;;;;5055844;28;20041;-74
2022/06/18 03:51:34;;;;;;;6.57;3.30;;;20.10;52.20;;;;;;5055525;28;20029;-74
2022/06/18 03:54:08;;;;;;;4.57;3.40;;;20.10;53.00;;;;;;5055803;28;20050;-74
2022/06/18 03:56:41;;;;;;;5.75;3.47;;;20.10;52.80;;;;;;5054410;28;20059;-75
2022/06/18 03:59:16;;;;;;;5.97;3.33;;;20.10;52.70;;;;;;5055421;28;20061;-74
2022/06/18 04:01:50;;;;;;;4.10;3.03;;;20.10;52.70;;;;;;5052822;28;20687;-74
2022/06/18 04:04:15;;;;;;;;;;;20.10;52.70;;;;;;5056164;28;20037;-74
2022/06/18 04:06:42;;;;;;;5.70;3.30;;;20.20;51.90;;;;;;5055694;28;19905;-74
2022/06/18 04:09:13;;;;;;;5.55;2.90;;;20.20;52.60;;;;;;5055465;28;20115;-78
2022/06/18 04:11:47;;;;;;;4.25;3.20;;;20.20;52.90;;;;;;5053742;28;20068;-74
2022/06/18 04:14:20;;;;;;;6.88;4.30;;;20.20;53.70;;;;;;5037438;28;20021;-74
2022/06/18 04:16:53;;;;;;;8.25;3.58;;;20.20;53.50;;;;;;5037584;28;20033;-74
2022/06/18 04:19:24;;;;;;;4.38;3.05;;;20.20;53.40;;;;;;5037337;28;20447;-77
2022/06/18 04:21:56;;;;;;;7.45;3.47;;;20.30;53.30;;;;;;5055256;28;20074;-75
2022/06/18 04:24:30;;;;;;;5.20;2.90;;;20.30;53.40;;;;;;5055214;28;20035;-75
2022/06/18 04:26:58;;;;;;;5.38;3.20;;;20.30;53.20;;;;;;5055235;28;20017;-75
2022/06/18 04:29:25;;;;;;;4.30;3.15;;;20.40;52.90;;;;;;5037304;28;20037;-74
2022/06/18 04:31:52;;;;;;;5.93;3.13;;;20.40;53.10;;;;;;5055287;28;20028;-74
2022/06/18 04:34:19;;;;;;;4.60;3.15;;;20.50;53.10;;;;;;5037361;28;20377;-75
2022/06/18 04:36:45;;;;;;;5.45;3.30;;;20.60;53.20;;;;;;5037386;28;20028;-74
2022/06/18 04:39:18;;;;;;;4.35;3.42;;;20.70;53.40;;;;;;5051005;28;20112;-74
2022/06/18 04:41:53;;;;;;;4.47;3.05;;;20.80;53.30;;;;;;5036846;28;20374;-74
2022/06/18 04:44:19;;;;;;;8.95;3.35;;;21.00;53.20;;;;;;5036873;28;20029;-74
2022/06/18 04:46:45;;;;;;;4.95;2.80;;;21.20;52.90;;;;;;5054698;28;20064;-74
2022/06/18 04:49:12;;;;;;;7.57;3.47;;;21.40;52.60;;;;;;5054639;28;20090;-74
2022/06/18 04:51:38;;;;;;;3.60;2.92;;;21.60;52.30;;;;;;5054564;28;20031;-74
2022/06/18 04:54:11;;;;;;;9.75;3.92;;;21.70;52.00;;;;;;5054893;28;20447;-74
2022/06/18 04:56:44;;;;;;;4.63;3.23;;;21.90;51.70;;;;;;5037015;28;20522;-74
2022/06/18 04:59:12;;;;;;;4.95;3.00;;;22.00;51.10;;;;;;5036576;28;20029;-75
2022/06/18 05:01:38;;;;;;;4.53;2.72;;;22.20;50.80;;;;;;5054592;28;20029;-74
2022/06/18 05:04:05;;;;;;;3.83;3.10;;;22.20;50.50;;;;;;5051892;28;20451;-74
2022/06/18 05:06:31;;;;;;;6.35;3.72;;;22.30;50.50;;;;;;5054640;28;20067;-74
2022/06/18 05:08:58;;;;;;;5.00;3.05;;;22.40;50.40;;;;;;5053218;28;20028;-75
2022/06/18 05:11:24;;;;;;;3.58;2.95;;;22.40;50.20;;;;;;5054825;28;20036;-74
2022/06/18 05:13:50;;;;;;;4.72;3.28;;;22.50;50.00;;;;;;5053265;28;20025;-74
2022/06/18 05:16:24;;;;;;;6.88;3.45;;;22.50;50.00;;;;;;5054370;28;20021;-74
2022/06/18 05:18:57;;;;;;;9.43;3.17;;;22.60;50.40;;;;;;5053223;28;20372;-74
2022/06/18 05:21:31;;;;;;;4.65;3.03;;;22.60;50.10;;;;;;5054458;28;20074;-74
2022/06/18 05:23:56;;;;;;;;;;;22.70;50.10;;;;;;5053265;28;20123;-75
2022/06/18 05:26:30;;;;;;;7.55;3.47;;;22.80;49.90;;;;;;5054096;28;20034;-74
2022/06/18 05:29:04;;;;;;;3.60;2.70;;;22.80;49.00;;;;;;5054184;28;20032;-75
2022/06/18 05:31:33;;;;;;;6.10;3.15;;;22.80;49.00;;;;;;5053833;28;20520;-74
2022/06/18 05:34:07;;;;;;;5.97;2.78;;;22.80;48.80;;;;;;5053953;28;20028;-73
2022/06/18 05:36:39;;;;;;;4.35;2.58;;;22.80;48.70;;;;;;5052400;28;20036;-75
2022/06/18 05:39:17;;;;;;;3.88;2.40;;;22.90;48.50;;;;;;5054145;28;20029;-73
2022/06/18 05:41:44;;;;;;;3.80;2.63;;;22.90;48.30;;;;;;5052709;28;20175;-73
2022/06/18 05:44:10;;;;;;;3.60;2.60;;;22.90;48.20;;;;;;5052726;28;20029;-74
2022/06/18 05:46:37;;;;;;;6.07;3.10;;;22.90;48.00;;;;;;5052260;28;20075;-73
2022/06/18 05:49:03;;;;;;;5.13;2.97;;;23.00;47.70;;;;;;5052521;28;20033;-74
2022/06/18 05:51:30;;;;;;;6.13;3.20;;;23.00;47.60;;;;;;5052165;28;20029;-74
2022/06/18 05:53:56;;;;;;;5.00;3.25;;;23.00;47.30;;;;;;5053742;28;20024;-75
2022/06/18 05:56:22;;;;;;;5.38;2.95;;;23.10;47.00;;;;;;5052454;28;20457;-74
2022/06/18 05:58:49;;;;;;;5.55;2.80;;;23.10;47.00;;;;;;5052363;28;20381;-74
2022/06/18 06:01:15;;;;;;;7.03;3.70;;;23.10;47.20;;;;;;5046928;28;20021;-74
2022/06/18 06:03:41;;;;;;;9.88;4.18;;;23.10;46.90;;;;;;5044558;28;20136;-74
2022/06/18 06:06:09;;;;;;;11.38;5.05;;;23.20;46.90;;;;;;5052175;28;20536;-76
2022/06/18 06:08:36;;;;;;;8.68;4.38;;;23.20;46.90;;;;;;5051562;28;20079;-74
2022/06/18 06:13:48;;;;;;;7.05;4.25;;;23.30;46.40;;;;;;5053179;28;20118;-73
2022/06/18 06:16:15;;;;;;;9.52;4.75;;;23.40;46.50;;;;;;5052993;28;20032;-73
2022/06/18 06:18:41;;;;;;;11.18;5.30;;;23.40;46.00;;;;;;5051917;28;20079;-74
2022/06/18 06:21:07;;;;;;;13.30;5.95;;;23.50;46.10;;;;;;5052320;28;20044;-74
2022/06/18 06:23:33;;;;;;;9.07;5.57;;;23.60;45.80;;;;;;5049524;28;20021;-75
2022/06/18 06:26:00;;;;;;;13.05;5.55;;;23.60;45.20;;;;;;5045544;28;20059;-74
2022/06/18 06:28:30;;;;;;;12.52;5.18;;;23.60;45.50;;;;;;5053143;28;20028;-73
2022/06/18 06:30:56;;;;;;;10.68;5.78;;;23.70;45.40;;;;;;5049773;28;20038;-73
2022/06/18 06:33:22;;;;;;;7.10;4.70;;;23.70;45.20;;;;;;5051449;28;20064;-74
2022/06/18 06:35:51;;;;;;;8.13;5.10;;;23.70;45.10;;;;;;5052192;28;20368;-74
2022/06/18 06:38:17;;;;;;;11.60;4.68;;;23.70;44.90;;;;;;5051427;28;20041;-73
2022/06/18 06:40:44;;;;;;;13.85;5.60;;;23.80;44.80;;;;;;5052784;28;20078;-73
2022/06/18 06:43:13;;;;;;;8.57;4.70;;;23.80;44.70;;;;;;5052497;28;20528;-73
2022/06/18 06:45:39;;;;;;;11.07;4.63;;;23.90;44.40;;;;;;5052620;28;20021;-74
2022/06/18 06:48:05;;;;;;;8.50;4.43;;;23.90;44.30;;;;;;5052625;28;20495;-73
2022/06/18 06:50:31;;;;;;;7.32;4.30;;;24.00;44.40;;;;;;5052300;28;20036;-73
2022/06/18 06:53:01;;;;;;;8.15;4.25;;;24.10;44.20;;;;;;5051629;28;20117;-74
2022/06/18 06:58:18;;;;;;;6.75;4.40;;;24.20;44.20;;;;;;5045124;28;20079;-73
2022/06/18 07:00:51;;;;;;;11.90;4.60;;;24.30;44.00;;;;;;5052530;28;20378;-74
2022/06/18 07:03:21;;;;;;;8.05;4.00;;;24.30;44.20;;;;;;5042925;28;20057;-73
2022/06/18 07:05:47;;;;;;;8.50;3.92;;;24.40;43.70;;;;;;5032583;28;20029;-74
2022/06/18 07:08:13;;;;;;;10.13;4.03;;;24.40;43.60;;;;;;5038318;28;20029;-73
2022/06/18 07:10:39;;;;;;;8.20;4.25;;;24.50;43.70;;;;;;5051044;28;20037;-73
2022/06/18 07:13:08;;;;;;;10.32;3.85;;;24.60;43.80;;;;;;5051275;28;20465;-72
2022/06/18 07:15:34;;;;;;;7.80;4.07;;;24.60;43.60;;;;;;5052808;28;20049;-73
2022/06/18 07:18:03;;;;;;;8.95;3.80;;;24.70;44.10;;;;;;5048975;28;20033;-73
2022/06/18 07:20:29;;;;;;;8.38;3.40;;;24.80;43.30;;;;;;5040101;28;20124;-73
2022/06/18 07:22:56;;;;;;;7.32;4.18;;;24.80;43.50;;;;;;5046791;28;20086;-73
2022/06/18 07:25:22;;;;;;;9.85;4.13;;;24.90;43.20;;;;;;5040079;28;20029;-78
2022/06/18 07:27:52;;;;;;;8.18;3.97;;;25.00;42.80;;;;;;5051955;28;20024;-73
2022/06/18 07:30:19;;;;;;;11.13;4.30;;;25.00;42.80;;;;;;5049883;28;20098;-74
2022/06/18 07:32:49;;;;;;;8.23;4.30;;;25.10;42.50;;;;;;5046857;28;20075;-74
2022/06/18 07:35:21;;;;;;;12.23;4.35;;;25.20;42.40;;;;;;5052541;28;20029;-73
2022/06/18 07:37:47;;;;;;;8.30;4.38;;;25.20;42.30;;;;;;5052021;28;20037;-74
2022/06/18 07:40:14;;;;;;;18.90;4.68;;;25.30;42.20;;;;;;5052789;28;20070;-74
2022/06/18 07:42:40;;;;;;;8.02;4.45;;;25.40;42.00;;;;;;5052472;28;20029;-73
2022/06/18 07:45:18;;;;;;;11.50;5.40;;;25.50;41.50;;;;;;5050821;28;20025;-73
2022/06/18 07:47:45;;;;;;;10.52;4.30;;;25.50;41.50;;;;;;5054387;28;20475;-73
2022/06/18 07:50:11;;;;;;;11.23;5.13;;;25.60;41.40;;;;;;5055609;28;20053;-73
2022/06/18 07:52:38;;;;;;;10.75;5.07;;;25.60;41.40;;;;;;5056200;28;20028;-74
2022/06/18 07:55:05;;;;;;;9.30;4.75;;;25.70;41.00;;;;;;5055993;28;20025;-73
2022/06/18 07:57:34;;;;;;;7.93;4.30;;;25.70;40.60;;;;;;5054785;28;20033;-74
2022/06/18 07:59:59;;;;;;;10.38;4.28;;;25.80;40.70;;;;;;5054498;28;20114;-74
2022/06/18 08:02:25;;;;;;;7.88;3.97;;;25.80;40.30;;;;;;5055443;28;20103;-73
2022/06/18 08:04:51;;;;;;;6.45;3.28;;;25.80;40.50;;;;;;5052485;28;20044;-74
2022/06/18 08:07:17;;;;;;;6.03;3.60;;;25.90;40.50;;;;;;5034377;28;20127;-74
2022/06/18 08:09:42;;;;;;;7.57;3.40;;;26.00;40.40;;;;;;5034380;28;20385;-73
2022/06/18 08:12:09;;;;;;;9.27;3.70;;;26.00;40.60;;;;;;5034387;28;20393;-76
2022/06/18 08:14:35;;;;;;;6.82;3.45;;;26.00;40.20;;;;;;5050950;28;20026;-75
2022/06/18 08:17:01;;;;;;;7.32;3.80;;;26.10;40.30;;;;;;5035732;28;20095;-73
2022/06/18 08:19:26;;;;;;;4.80;3.17;;;26.20;40.20;;;;;;5034270;28;20071;-74
2022/06/18 08:21:52;;;;;;;11.68;4.10;;;26.20;40.20;;;;;;5038210;28;20020;-74
2022/06/18 08:24:21;;;;;;;9.25;3.58;;;26.30;39.90;;;;;;5054986;28;20053;-74
2022/06/18 08:26:49;;;;;;;5.18;3.00;;;26.40;39.40;;;;;;5054001;28;20481;-73
2022/06/18 08:29:19;;;;;;;6.90;3.55;;;26.40;39.40;;;;;;5055065;28;20079;-74
2022/06/18 08:31:46;;;;;;;7.38;3.65;;;26.50;39.50;;;;;;5053788;28;20029;-73
2022/06/18 08:34:12;;;;;;;8.00;3.28;;;26.60;39.40;;;;;;5054695;28;20512;-74
2022/06/18 08:36:40;;;;;;;6.40;2.80;;;26.70;39.50;;;;;;5053660;28;20134;-74
2022/06/18 08:39:06;;;;;;;4.32;3.05;;;26.70;39.00;;;;;;5053618;28;20033;-74
2022/06/18 08:41:57;;;;;;;6.30;3.55;;;26.80;39.10;;;;;;5055209;28;20083;-74
2022/06/18 08:44:31;;;;;;;9.52;4.28;;;26.90;39.40;;;;;;5054686;28;20078;-75
2022/06/18 08:47:12;;;;;;;5.88;3.33;;;27.00;38.80;;;;;;5054933;28;20029;-74
2022/06/18 08:49:44;;;;;;;4.53;2.72;;;27.00;38.60;;;;;;5054770;28;20029;-74
2022/06/18 08:52:40;;;;;;;7.70;3.05;;;27.10;38.60;;;;;;5054525;28;20095;-74
2022/06/18 08:55:43;;;;;;;4.82;3.35;;;27.10;38.30;;;;;;5000040;28;20486;-73
2022/06/18 08:58:27;;;;;;;12.55;4.15;;;27.20;38.60;;;;;;5045613;28;20373;-75
2022/06/18 09:00:53;;;;;;;7.32;3.40;;;27.30;38.70;;;;;;5054471;28;20083;-73
2022/06/18 09:03:51;;;;;;;6.28;3.20;;;27.30;38.30;;;;;;5053791;28;20504;-73
2022/06/18 09:06:25;;;;;;;8.93;3.35;;;27.40;38.50;;;;;;5041080;28;20055;-74
2022/06/18 09:09:27;;;;;;;4.07;2.83;;;27.40;37.90;;;;;;5054386;28;20108;-74
2022/06/18 09:12:06;;;;;;;3.58;2.58;;;27.50;38.00;;;;;;5054400;28;20032;-72
2022/06/18 09:14:56;;;;;;;7.13;3.20;;;27.60;37.60;;;;;;5053237;28;20056;-73
2022/06/18 09:17:53;;;;;;;5.30;3.10;;;27.60;37.90;;;;;;5054286;28;20029;-77
2022/06/18 09:20:30;;;;;;;4.30;2.85;;;27.70;38.30;;;;;;5044828;28;20124;-72
2022/06/18 09:23:03;;;;;;;5.60;2.63;;;27.70;37.30;;;;;;5053693;28;20487;-73
2022/06/18 09:25:38;;;;;;;5.30;2.90;;;27.80;37.50;;;;;;5053767;28;20415;-73
2022/06/18 09:28:08;;;;;;;5.00;2.80;;;27.80;37.70;;;;;;5052761;28;20029;-72
2022/06/18 09:30:39;;;;;;;5.65;3.20;;;27.90;37.80;;;;;;5045486;28;20026;-74
2022/06/18 09:33:38;;;;;;;5.85;3.22;;;27.90;38.10;;;;;;5032613;28;20029;-72
2022/06/18 09:36:13;;;;;;;8.88;3.85;;;28.00;38.40;;;;;;5033915;28;20032;-73
2022/06/18 09:38:45;;;;;;;4.60;2.75;;;28.10;38.10;;;;;;5032623;28;20385;-73
2022/06/18 09:41:30;;;;;;;3.60;2.53;;;28.10;38.00;;;;;;5034051;28;20025;-73
2022/06/18 09:44:17;;;;;;;6.05;3.08;;;28.20;38.10;;;;;;5032542;28;20029;-73
2022/06/18 09:47:00;;;;;;;4.93;2.90;;;28.30;38.00;;;;;;5033431;28;20025;-77
2022/06/18 09:49:27;;;;;;;8.48;3.22;;;28.30;37.60;;;;;;5033660;28;20148;-74
2022/06/18 09:52:03;;;;;;;4.50;3.10;;;28.40;37.80;;;;;;5032388;28;20099;-73
2022/06/18 09:54:34;;;;;;;4.43;2.65;;;28.50;37.40;;;;;;5032417;28;20091;-73
2022/06/18 09:57:08;;;;;;;5.95;2.85;;;28.50;36.60;;;;;;5032428;28;20029;-76
2022/06/18 09:59:39;;;;;;;4.10;2.75;;;28.50;36.90;;;;;;5033635;28;20033;-72
2022/06/18 10:02:19;;;;;;;7.22;3.00;;;28.60;37.00;;;;;;5033476;28;20021;-73
2022/06/18 10:07:32;;;;;;;7.03;2.70;;;28.60;36.90;;;;;;5033016;28;20132;-73
2022/06/18 10:10:05;;;;;;;4.82;2.88;;;28.70;36.70;;;;;;5031934;28;20075;-73
2022/06/18 10:12:33;;;;;;;4.65;2.42;;;28.80;36.40;;;;;;5033655;28;20464;-73
2022/06/18 10:15:03;;;;;;;4.80;2.85;;;28.80;36.30;;;;;;5031944;28;20429;-73
2022/06/18 10:17:47;;;;;;;3.97;2.53;;;28.90;36.20;;;;;;5033219;28;20083;-73
2022/06/18 10:20:34;;;;;;;4.68;2.58;;;28.90;36.00;;;;;;5045596;28;20064;-74
2022/06/18 10:23:25;;;;;;;6.55;2.50;;;28.90;35.70;;;;;;5053088;28;20051;-73
2022/06/18 10:26:26;;;;;;;4.53;2.28;;;29.00;36.10;;;;;;5052681;28;20100;-73
2022/06/18 10:29:04;;;;;;;3.35;2.75;;;29.10;35.50;;;;;;5052433;28;20119;-74
2022/06/18 10:31:38;;;;;;;2.75;2.25;;;29.20;33.80;;;;;;5053248;28;20040;-73
2022/06/18 10:34:22;;;;;;;3.38;2.10;;;29.20;33.90;;;;;;5051657;28;20383;-73
2022/06/18 10:37:00;;;;;;;2.05;1.70;;;29.20;33.20;;;;;;5051708;28;20025;-74
2022/06/18 10:39:38;;;;;;;4.45;1.50;;;29.30;33.10;;;;;;5052697;28;20086;-73
2022/06/18 10:42:16;;;;;;;5.35;1.83;;;29.40;32.70;;;;;;5051970;28;20118;-73
2022/06/18 10:45:07;;;;;;;4.25;2.10;;;29.40;32.20;;;;;;5051565;28;20090;-73
2022/06/18 10:47:44;;;;;;;8.65;1.60;;;29.40;31.20;;;;;;5052841;28;20029;-73
2022/06/18 10:50:14;;;;;;;3.58;1.58;;;29.50;30.40;;;;;;5051575;28;20469;-73
2022/06/18 10:52:40;;;;;;;4.35;1.85;;;29.60;29.70;;;;;;5051586;28;20113;-76
2022/06/18 10:55:20;;;;;;;2.33;1.70;;;29.60;29.40;;;;;;5051533;28;20025;-73
2022/06/18 10:57:48;;;;;;;2.90;1.80;;;29.60;29.70;;;;;;5051478;28;20028;-73
2022/06/18 11:00:42;;;;;;;4.60;1.95;;;29.70;28.40;;;;;;5051584;28;20114;-73
2022/06/18 11:03:21;;;;;;;5.10;1.60;;;29.70;29.50;;;;;;5050076;28;20056;-74
2022/06/18 11:05:48;;;;;;;3.38;1.75;;;29.80;29.50;;;;;;5051546;28;20025;-73
2022/06/18 11:08:27;;;;;;;2.45;1.58;;;29.80;28.30;;;;;;5051429;28;20175;-73
2022/06/18 11:11:04;;;;;;;9.50;1.67;;;29.90;28.20;;;;;;5051381;28;20036;-74
2022/06/18 11:13:37;;;;;;;3.75;1.80;;;29.90;28.00;;;;;;5051426;28;20064;-73
2022/06/18 11:16:18;;;;;;;;;;;29.90;27.90;;;;;;5053015;28;20033;-74
2022/06/18 11:19:18;;;;;;;1.63;1.52;;;30.00;29.30;;;;;;5051091;28;20260;-73
2022/06/18 11:21:44;;;;;;;1.38;1.27;;;30.00;27.60;;;;;;5052836;28;20477;-74
2022/06/18 11:24:15;;;;;;;1.45;1.08;;;30.10;26.90;;;;;;5056337;28;20111;-73
2022/06/18 11:26:48;;;;;;;2.10;1.20;;;30.10;26.70;;;;;;5054553;28;20024;-73
2022/06/18 11:29:40;;;;;;;1.38;1.10;;;30.20;26.70;;;;;;5056166;28;20040;-73
2022/06/18 11:32:11;;;;;;;1.98;1.38;;;30.20;26.50;;;;;;5036600;28;20440;-73
2022/06/18 11:34:42;;;;;;;1.80;1.50;;;30.20;26.60;;;;;;5036170;28;20022;-73
2022/06/18 11:37:30;;;;;;;2.33;1.40;;;30.20;26.20;;;;;;5034821;28;20032;-73
2022/06/18 11:40:19;;;;;;;2.10;1.33;;;30.30;26.50;;;;;;5034742;28;20128;-73
2022/06/18 11:42:58;;;;;;;2.85;1.45;;;30.30;26.60;;;;;;5035849;28;20027;-75
2022/06/18 11:45:30;;;;;;;3.42;1.60;;;30.40;25.90;;;;;;5034823;28;20021;-74
2022/06/18 11:48:03;;;;;;;5.35;1.48;;;30.40;25.60;;;;;;5034584;28;20277;-73
2022/06/18 11:50:46;;;;;;;1.50;1.40;;;30.40;25.90;;;;;;5036325;28;20040;-73
2022/06/18 11:53:35;;;;;;;5.28;1.20;;;30.50;25.70;;;;;;5034666;28;20472;-73
2022/06/18 11:56:05;;;;;;;3.38;1.60;;;30.50;25.40;;;;;;5034535;28;20025;-73
2022/06/18 11:58:51;;;;;;;1.40;1.30;;;30.60;25.30;;;;;;5035755;28;20021;-73
2022/06/18 12:01:34;;;;;;;2.88;1.40;;;30.70;25.70;;;;;;5034664;28;20095;-74
2022/06/18 12:04:09;;;;;;;;;;;30.70;24.90;;;;;;5036205;28;20477;-73
2022/06/18 12:07:07;;;;;;;2.90;1.50;;;30.80;26.30;;;;;;5034433;28;20356;-74
2022/06/18 12:09:36;;;;;;;1.80;1.30;;;30.80;25.70;;;;;;5050133;28;20044;-73
2022/06/18 12:12:30;;;;;;;2.67;1.40;;;30.90;25.80;;;;;;5035595;28;20022;-73
2022/06/18 12:15:14;;;;;;;2.45;1.23;;;30.90;25.60;;;;;;5035947;28;20032;-73
2022/06/18 12:18:24;;;;;;;2.22;1.33;;;30.90;25.90;;;;;;5049820;28;20488;-73
2022/06/18 12:20:56;;;;;;;2.35;1.42;;;31.00;26.00;;;;;;4977235;28;20101;-73
2022/06/18 12:23:52;;;;;;;1.42;1.25;;;31.00;25.20;;;;;;4993956;28;20049;-73
2022/06/18 12:26:47;;;;;;;2.67;1.50;;;31.00;26.20;;;;;;4972721;28;20058;-75
2022/06/18 12:29:26;;;;;;;2.13;1.52;;;31.00;25.30;;;;;;4990664;28;20089;-73
2022/06/18 12:32:29;;;;;;;1.88;1.02;;;31.10;25.60;;;;;;4993300;28;20046;-73
2022/06/18 12:35:13;;;;;;;3.33;1.42;;;31.10;25.30;;;;;;4934354;29;20048;-74
2022/06/18 12:38:08;;;;;;;1.90;1.45;;;31.20;25.40;;;;;;4935438;29;20122;-73
2022/06/18 12:41:06;;;;;;;1.77;1.20;;;31.20;25.20;;;;;;4935396;29;20118;-73
2022/06/18 12:43:47;;;;;;;4.53;1.33;;;31.20;24.70;;;;;;4930586;29;20039;-73
2022/06/18 12:46:48;;;;;;;1.17;1.08;;;31.30;23.90;;;;;;4935081;29;20042;-72
2022/06/18 12:49:25;;;;;;;1.67;1.30;;;31.30;24.20;;;;;;4917863;29;20040;-73
2022/06/18 12:52:01;;;;;;;1.98;1.20;;;31.30;24.50;;;;;;4985593;28;20046;-73
2022/06/18 12:54:36;;;;;;;2.25;1.30;;;31.40;24.50;;;;;;4996091;28;20033;-73
2022/06/18 12:57:23;;;;;;;1.83;1.02;;;31.40;24.10;;;;;;4995935;28;20038;-73
2022/06/18 13:00:02;;;;;;;1.48;1.10;;;31.40;24.50;;;;;;5012779;28;20413;-74
2022/06/18 13:02:51;;;;;;;1.77;0.82;;;31.50;23.90;;;;;;4995635;28;20136;-73
2022/06/18 13:05:29;;;;;;;3.17;1.08;;;31.60;23.70;;;;;;4995834;28;20056;-73
2022/06/18 13:08:18;;;;;;;1.48;1.20;;;31.60;23.60;;;;;;4995608;28;20505;-75
2022/06/18 13:10:58;;;;;;;1.33;1.17;;;31.70;24.10;;;;;;5036813;28;20037;-72
2022/06/18 13:13:42;;;;;;;1.33;1.20;;;31.80;24.30;;;;;;5053978;28;20025;-76
2022/06/18 13:16:20;;;;;;;1.38;1.27;;;31.80;24.40;;;;;;5052818;28;20453;-73
2022/06/18 13:18:59;;;;;;;1.40;1.08;;;31.90;24.30;;;;;;5052919;28;20032;-73
2022/06/18 13:21:25;;;;;;;2.90;1.20;;;31.90;24.40;;;;;;5052639;28;20032;-73
2022/06/18 13:29:43;;;;;;;1.80;1.40;;;32.80;24.60;;;;;;5053655;28;20040;-73
2022/06/18 13:32:37;;;;;;;2.08;1.25;;;33.40;24.40;;;;;;5054095;28;20354;-72
2022/06/18 13:35:02;;;;;;;;;;;34.00;24.50;;;;;;5053150;28;20025;-73
2022/06/18 13:37:58;;;;;;;1.65;1.35;;;34.50;25.20;;;;;;5052275;28;19905;-73
2022/06/18 13:40:37;;;;;;;1.85;1.33;;;35.10;23.70;;;;;;5053980;28;20035;-73
2022/06/18 13:43:23;;;;;;;1.65;1.33;;;35.80;23.20;;;;;;5052496;28;20025;-73
2022/06/18 13:46:10;;;;;;;3.78;1.45;;;36.30;22.50;;;;;;5053381;28;20024;-74
2022/06/18 13:48:48;;;;;;;2.30;1.38;;;36.90;22.70;;;;;;5052402;28;20459;-74